sensor_id;sensor_type;location;lat;lon;timestamp;P1;durP1;ratioP1;P2;durP2;ratioP2
13238;SDS011;6686;51.292;4.166;2022-07-22T00:01:48;7.20;;;3.37;;
13238;SDS011;6686;51.292;4.166;2022-07-22T00:04:34;6.60;;;2.47;;
13238;SDS011;6686;51.292;4.166;2022-07-22T00:07:20;6.03;;;2.80;;
13238;SDS011;6686;51.292;4.166;2022-07-22T00:10:08;5.87;;;2.77;;
13238;SDS011;6686;51.292;4.166;2022-07-22T00:12:52;9.03;;;2.83;;
13238;SDS011;6686;51.292;4.166;2022-07-22T00:15:38;6.22;;;2.90;;
13238;SDS011;6686;51.292;4.166;2022-07-22T00:18:24;6.60;;;3.07;;
13238;SDS011;6686;51.292;4.166;2022-07-22T00:21:12;7.10;;;2.83;;
13238;SDS011;6686;51.292;4.166;2022-07-22T00:23:58;11.40;;;3.20;;
13238;SDS011;6686;51.292;4.166;2022-07-22T00:26:44;9.50;;;2.50;;
13238;SDS011;6686;51.292;4.166;2022-07-22T00:29:30;7.20;;;2.97;;
13238;SDS011;6686;51.292;4.166;2022-07-22T00:32:16;5.23;;;2.73;;
13238;SDS011;6686;51.292;4.166;2022-07-22T00:35:01;9.63;;;2.87;;
13238;SDS011;6686;51.292;4.166;2022-07-22T00:37:47;6.97;;;2.87;;
13238;SDS011;6686;51.292;4.166;2022-07-22T00:40:33;6.68;;;3.00;;
13238;SDS011;6686;51.292;4.166;2022-07-22T00:43:19;6.67;;;2.87;;
13238;SDS011;6686;51.292;4.166;2022-07-22T00:46:04;8.90;;;2.90;;
13238;SDS011;6686;51.292;4.166;2022-07-22T00:48:51;6.17;;;2.40;;
13238;SDS011;6686;51.292;4.166;2022-07-22T00:51:37;5.93;;;2.63;;
13238;SDS011;6686;51.292;4.166;2022-07-22T00:54:23;7.57;;;2.83;;
13238;SDS011;6686;51.292;4.166;2022-07-22T00:57:09;7.00;;;2.67;;
13238;SDS011;6686;51.292;4.166;2022-07-22T00:59:54;3.90;;;2.60;;
13238;SDS011;6686;51.292;4.166;2022-07-22T01:02:40;7.23;;;2.70;;
13238;SDS011;6686;51.292;4.166;2022-07-22T01:05:26;7.63;;;2.83;;
13238;SDS011;6686;51.292;4.166;2022-07-22T01:08:12;6.80;;;2.80;;
13238;SDS011;6686;51.292;4.166;2022-07-22T01:11:08;8.17;;;2.77;;
13238;SDS011;6686;51.292;4.166;2022-07-22T01:13:56;7.30;;;3.27;;
13238;SDS011;6686;51.292;4.166;2022-07-22T01:16:42;5.07;;;2.57;;
13238;SDS011;6686;51.292;4.166;2022-07-22T01:19:27;8.90;;;2.70;;
13238;SDS011;6686;51.292;4.166;2022-07-22T01:22:13;4.67;;;2.37;;
13238;SDS011;6686;51.292;4.166;2022-07-22T01:24:59;5.23;;;2.40;;
13238;SDS011;6686;51.292;4.166;2022-07-22T01:27:46;5.93;;;2.77;;
13238;SDS011;6686;51.292;4.166;2022-07-22T01:30:32;7.80;;;2.83;;
13238;SDS011;6686;51.292;4.166;2022-07-22T01:33:18;4.93;;;2.67;;
13238;SDS011;6686;51.292;4.166;2022-07-22T01:36:04;9.23;;;2.80;;
13238;SDS011;6686;51.292;4.166;2022-07-22T01:38:49;7.47;;;3.00;;
13238;SDS011;6686;51.292;4.166;2022-07-22T01:41:35;8.90;;;3.07;;
13238;SDS011;6686;51.292;4.166;2022-07-22T01:44:21;9.30;;;2.60;;
13238;SDS011;6686;51.292;4.166;2022-07-22T01:47:07;6.10;;;2.60;;
13238;SDS011;6686;51.292;4.166;2022-07-22T01:49:53;4.83;;;2.73;;
13238;SDS011;6686;51.292;4.166;2022-07-22T01:52:39;6.10;;;2.57;;
13238;SDS011;6686;51.292;4.166;2022-07-22T01:55:24;5.73;;;2.47;;
13238;SDS011;6686;51.292;4.166;2022-07-22T01:58:10;5.67;;;2.57;;
13238;SDS011;6686;51.292;4.166;2022-07-22T02:00:56;8.87;;;3.33;;
13238;SDS011;6686;51.292;4.166;2022-07-22T02:03:42;4.63;;;2.30;;
13238;SDS011;6686;51.292;4.166;2022-07-22T02:06:28;7.60;;;2.70;;
13238;SDS011;6686;51.292;4.166;2022-07-22T02:09:14;6.67;;;2.63;;
13238;SDS011;6686;51.292;4.166;2022-07-22T02:12:00;6.03;;;3.03;;
13238;SDS011;6686;51.292;4.166;2022-07-22T02:14:46;7.17;;;2.67;;
13238;SDS011;6686;51.292;4.166;2022-07-22T02:17:34;4.30;;;2.30;;
13238;SDS011;6686;51.292;4.166;2022-07-22T02:20:19;7.77;;;2.50;;
13238;SDS011;6686;51.292;4.166;2022-07-22T02:23:05;5.37;;;2.40;;
13238;SDS011;6686;51.292;4.166;2022-07-22T02:25:51;5.07;;;2.80;;
13238;SDS011;6686;51.292;4.166;2022-07-22T02:28:37;4.53;;;2.73;;
13238;SDS011;6686;51.292;4.166;2022-07-22T02:31:23;5.07;;;2.60;;
13238;SDS011;6686;51.292;4.166;2022-07-22T02:34:08;7.23;;;2.87;;
13238;SDS011;6686;51.292;4.166;2022-07-22T02:36:54;3.80;;;3.03;;
13238;SDS011;6686;51.292;4.166;2022-07-22T02:39:40;5.43;;;3.40;;
13238;SDS011;6686;51.292;4.166;2022-07-22T02:42:26;6.47;;;2.97;;
13238;SDS011;6686;51.292;4.166;2022-07-22T02:45:12;8.23;;;3.30;;
13238;SDS011;6686;51.292;4.166;2022-07-22T02:47:58;7.20;;;3.40;;
13238;SDS011;6686;51.292;4.166;2022-07-22T02:50:45;7.97;;;2.80;;
13238;SDS011;6686;51.292;4.166;2022-07-22T02:53:30;5.97;;;2.90;;
13238;SDS011;6686;51.292;4.166;2022-07-22T02:56:16;6.17;;;3.10;;
13238;SDS011;6686;51.292;4.166;2022-07-22T02:59:02;3.93;;;2.83;;
13238;SDS011;6686;51.292;4.166;2022-07-22T03:01:48;6.13;;;3.33;;
13238;SDS011;6686;51.292;4.166;2022-07-22T03:04:34;6.70;;;3.50;;
13238;SDS011;6686;51.292;4.166;2022-07-22T03:07:20;7.50;;;3.30;;
13238;SDS011;6686;51.292;4.166;2022-07-22T03:10:06;8.77;;;3.80;;
13238;SDS011;6686;51.292;4.166;2022-07-22T03:12:52;5.35;;;3.75;;
13238;SDS011;6686;51.292;4.166;2022-07-22T03:15:38;6.53;;;3.83;;
13238;SDS011;6686;51.292;4.166;2022-07-22T03:18:24;5.97;;;2.97;;
13238;SDS011;6686;51.292;4.166;2022-07-22T03:21:10;5.20;;;3.40;;
13238;SDS011;6686;51.292;4.166;2022-07-22T03:23:56;6.40;;;3.30;;
13238;SDS011;6686;51.292;4.166;2022-07-22T03:26:42;6.95;;;3.90;;
13238;SDS011;6686;51.292;4.166;2022-07-22T03:29:27;7.53;;;3.40;;
13238;SDS011;6686;51.292;4.166;2022-07-22T03:32:14;6.40;;;3.43;;
13238;SDS011;6686;51.292;4.166;2022-07-22T03:35:00;5.70;;;3.80;;
13238;SDS011;6686;51.292;4.166;2022-07-22T03:37:45;5.53;;;3.77;;
13238;SDS011;6686;51.292;4.166;2022-07-22T03:40:31;5.90;;;3.43;;
13238;SDS011;6686;51.292;4.166;2022-07-22T03:43:17;5.20;;;3.93;;
13238;SDS011;6686;51.292;4.166;2022-07-22T03:46:03;9.93;;;3.70;;
13238;SDS011;6686;51.292;4.166;2022-07-22T03:48:49;6.27;;;3.53;;
13238;SDS011;6686;51.292;4.166;2022-07-22T03:51:35;7.27;;;4.07;;
13238;SDS011;6686;51.292;4.166;2022-07-22T03:54:22;5.97;;;3.87;;
13238;SDS011;6686;51.292;4.166;2022-07-22T03:57:07;7.28;;;4.07;;
13238;SDS011;6686;51.292;4.166;2022-07-22T03:59:53;5.22;;;3.70;;
13238;SDS011;6686;51.292;4.166;2022-07-22T04:02:39;5.70;;;3.67;;
13238;SDS011;6686;51.292;4.166;2022-07-22T04:05:25;4.97;;;3.80;;
13238;SDS011;6686;51.292;4.166;2022-07-22T04:08:11;6.90;;;3.87;;
13238;SDS011;6686;51.292;4.166;2022-07-22T04:10:57;6.83;;;3.73;;
13238;SDS011;6686;51.292;4.166;2022-07-22T04:13:42;6.03;;;3.77;;
13238;SDS011;6686;51.292;4.166;2022-07-22T04:16:28;8.70;;;4.20;;
13238;SDS011;6686;51.292;4.166;2022-07-22T04:19:14;7.80;;;3.77;;
13238;SDS011;6686;51.292;4.166;2022-07-22T04:22:00;7.17;;;4.13;;
13238;SDS011;6686;51.292;4.166;2022-07-22T04:24:46;9.43;;;4.03;;
13238;SDS011;6686;51.292;4.166;2022-07-22T04:27:32;7.57;;;4.43;;
13238;SDS011;6686;51.292;4.166;2022-07-22T04:30:18;7.40;;;4.00;;
13238;SDS011;6686;51.292;4.166;2022-07-22T04:33:04;7.13;;;4.60;;
13238;SDS011;6686;51.292;4.166;2022-07-22T04:35:50;10.63;;;4.10;;
13238;SDS011;6686;51.292;4.166;2022-07-22T04:38:36;7.50;;;4.32;;
13238;SDS011;6686;51.292;4.166;2022-07-22T04:41:22;6.78;;;4.20;;
13238;SDS011;6686;51.292;4.166;2022-07-22T04:44:08;6.03;;;3.80;;
13238;SDS011;6686;51.292;4.166;2022-07-22T04:46:54;7.93;;;4.37;;
13238;SDS011;6686;51.292;4.166;2022-07-22T04:49:39;6.67;;;3.90;;
13238;SDS011;6686;51.292;4.166;2022-07-22T04:52:25;6.57;;;3.80;;
13238;SDS011;6686;51.292;4.166;2022-07-22T04:55:11;6.53;;;3.73;;
13238;SDS011;6686;51.292;4.166;2022-07-22T04:57:57;8.37;;;3.23;;
13238;SDS011;6686;51.292;4.166;2022-07-22T05:00:43;5.93;;;3.60;;
13238;SDS011;6686;51.292;4.166;2022-07-22T05:03:29;6.33;;;3.70;;
13238;SDS011;6686;51.292;4.166;2022-07-22T05:06:15;7.73;;;3.70;;
13238;SDS011;6686;51.292;4.166;2022-07-22T05:09:01;7.18;;;3.72;;
13238;SDS011;6686;51.292;4.166;2022-07-22T05:11:46;10.48;;;4.18;;
13238;SDS011;6686;51.292;4.166;2022-07-22T05:14:32;8.40;;;3.80;;
13238;SDS011;6686;51.292;4.166;2022-07-22T05:17:18;5.40;;;3.83;;
13238;SDS011;6686;51.292;4.166;2022-07-22T05:20:04;4.93;;;3.27;;
13238;SDS011;6686;51.292;4.166;2022-07-22T05:22:50;8.73;;;3.83;;
13238;SDS011;6686;51.292;4.166;2022-07-22T05:25:36;7.37;;;3.47;;
13238;SDS011;6686;51.292;4.166;2022-07-22T05:28:21;6.83;;;4.53;;
13238;SDS011;6686;51.292;4.166;2022-07-22T05:31:08;9.83;;;3.33;;
13238;SDS011;6686;51.292;4.166;2022-07-22T05:33:53;6.37;;;3.40;;
13238;SDS011;6686;51.292;4.166;2022-07-22T05:36:39;9.23;;;3.10;;
13238;SDS011;6686;51.292;4.166;2022-07-22T05:39:25;8.23;;;3.50;;
13238;SDS011;6686;51.292;4.166;2022-07-22T05:42:11;6.00;;;2.73;;
13238;SDS011;6686;51.292;4.166;2022-07-22T05:44:57;17.90;;;4.40;;
13238;SDS011;6686;51.292;4.166;2022-07-22T05:47:42;9.20;;;3.43;;
13238;SDS011;6686;51.292;4.166;2022-07-22T05:50:28;7.53;;;3.30;;
13238;SDS011;6686;51.292;4.166;2022-07-22T05:53:14;8.70;;;3.37;;
13238;SDS011;6686;51.292;4.166;2022-07-22T05:56:00;9.80;;;3.03;;
13238;SDS011;6686;51.292;4.166;2022-07-22T05:58:46;7.57;;;3.30;;
13238;SDS011;6686;51.292;4.166;2022-07-22T06:01:32;5.13;;;2.90;;
13238;SDS011;6686;51.292;4.166;2022-07-22T06:04:17;5.70;;;2.90;;
13238;SDS011;6686;51.292;4.166;2022-07-22T06:07:03;7.28;;;3.30;;
13238;SDS011;6686;51.292;4.166;2022-07-22T06:09:50;5.47;;;2.97;;
13238;SDS011;6686;51.292;4.166;2022-07-22T06:12:35;7.27;;;3.03;;
13238;SDS011;6686;51.292;4.166;2022-07-22T06:15:21;7.83;;;2.50;;
13238;SDS011;6686;51.292;4.166;2022-07-22T06:18:07;8.20;;;2.23;;
13238;SDS011;6686;51.292;4.166;2022-07-22T06:20:53;4.73;;;2.33;;
13238;SDS011;6686;51.292;4.166;2022-07-22T06:23:39;4.87;;;2.13;;
13238;SDS011;6686;51.292;4.166;2022-07-22T06:26:24;6.80;;;2.57;;
13238;SDS011;6686;51.292;4.166;2022-07-22T06:29:10;7.25;;;2.50;;
13238;SDS011;6686;51.292;4.166;2022-07-22T06:31:57;5.47;;;2.23;;
13238;SDS011;6686;51.292;4.166;2022-07-22T06:34:42;7.20;;;2.90;;
13238;SDS011;6686;51.292;4.166;2022-07-22T06:37:28;10.17;;;2.57;;
13238;SDS011;6686;51.292;4.166;2022-07-22T06:40:14;5.90;;;2.40;;
13238;SDS011;6686;51.292;4.166;2022-07-22T06:43:00;2.77;;;2.00;;
13238;SDS011;6686;51.292;4.166;2022-07-22T06:45:45;6.73;;;2.20;;
13238;SDS011;6686;51.292;4.166;2022-07-22T06:48:31;6.93;;;2.50;;
13238;SDS011;6686;51.292;4.166;2022-07-22T06:51:17;4.93;;;2.40;;
13238;SDS011;6686;51.292;4.166;2022-07-22T06:54:03;6.53;;;2.40;;
13238;SDS011;6686;51.292;4.166;2022-07-22T06:56:49;4.60;;;2.07;;
13238;SDS011;6686;51.292;4.166;2022-07-22T06:59:35;5.03;;;2.73;;
13238;SDS011;6686;51.292;4.166;2022-07-22T07:02:21;6.23;;;2.30;;
13238;SDS011;6686;51.292;4.166;2022-07-22T07:05:07;5.13;;;2.20;;
13238;SDS011;6686;51.292;4.166;2022-07-22T07:07:53;4.57;;;2.40;;
13238;SDS011;6686;51.292;4.166;2022-07-22T07:10:39;6.90;;;2.17;;
13238;SDS011;6686;51.292;4.166;2022-07-22T07:13:24;3.37;;;1.90;;
13238;SDS011;6686;51.292;4.166;2022-07-22T07:16:10;12.33;;;2.33;;
13238;SDS011;6686;51.292;4.166;2022-07-22T07:18:56;5.47;;;2.73;;
13238;SDS011;6686;51.292;4.166;2022-07-22T07:21:42;6.23;;;2.70;;
13238;SDS011;6686;51.292;4.166;2022-07-22T07:24:28;6.22;;;3.08;;
13238;SDS011;6686;51.292;4.166;2022-07-22T07:27:14;12.53;;;3.27;;
13238;SDS011;6686;51.292;4.166;2022-07-22T07:30:00;5.60;;;2.73;;
13238;SDS011;6686;51.292;4.166;2022-07-22T07:32:46;3.90;;;2.73;;
13238;SDS011;6686;51.292;4.166;2022-07-22T07:35:32;31.80;;;5.87;;
13238;SDS011;6686;51.292;4.166;2022-07-22T07:38:18;6.53;;;2.60;;
13238;SDS011;6686;51.292;4.166;2022-07-22T07:41:04;7.17;;;3.50;;
13238;SDS011;6686;51.292;4.166;2022-07-22T07:43:50;6.82;;;3.67;;
13238;SDS011;6686;51.292;4.166;2022-07-22T07:46:36;5.97;;;3.40;;
13238;SDS011;6686;51.292;4.166;2022-07-22T07:49:21;5.13;;;3.13;;
13238;SDS011;6686;51.292;4.166;2022-07-22T07:52:07;5.80;;;3.40;;
13238;SDS011;6686;51.292;4.166;2022-07-22T07:54:53;7.70;;;2.95;;
13238;SDS011;6686;51.292;4.166;2022-07-22T07:57:39;5.07;;;3.20;;
13238;SDS011;6686;51.292;4.166;2022-07-22T08:00:25;5.63;;;2.70;;
13238;SDS011;6686;51.292;4.166;2022-07-22T08:03:13;4.93;;;2.30;;
13238;SDS011;6686;51.292;4.166;2022-07-22T08:05:59;4.03;;;2.70;;
13238;SDS011;6686;51.292;4.166;2022-07-22T08:08:46;8.03;;;2.33;;
13238;SDS011;6686;51.292;4.166;2022-07-22T08:11:32;4.20;;;2.10;;
13238;SDS011;6686;51.292;4.166;2022-07-22T08:14:18;4.37;;;2.70;;
13238;SDS011;6686;51.292;4.166;2022-07-22T08:17:04;4.00;;;2.37;;
13238;SDS011;6686;51.292;4.166;2022-07-22T08:19:49;6.73;;;2.63;;
13238;SDS011;6686;51.292;4.166;2022-07-22T08:22:35;3.80;;;2.70;;
13238;SDS011;6686;51.292;4.166;2022-07-22T08:25:21;7.03;;;2.93;;
13238;SDS011;6686;51.292;4.166;2022-07-22T08:28:07;8.57;;;3.23;;
13238;SDS011;6686;51.292;4.166;2022-07-22T08:30:53;4.40;;;2.50;;
13238;SDS011;6686;51.292;4.166;2022-07-22T08:33:39;6.00;;;3.20;;
13238;SDS011;6686;51.292;4.166;2022-07-22T08:36:25;6.70;;;2.73;;
13238;SDS011;6686;51.292;4.166;2022-07-22T08:39:11;5.80;;;3.30;;
13238;SDS011;6686;51.292;4.166;2022-07-22T08:41:57;5.37;;;3.00;;
13238;SDS011;6686;51.292;4.166;2022-07-22T08:44:42;5.00;;;2.47;;
13238;SDS011;6686;51.292;4.166;2022-07-22T08:47:28;3.17;;;2.33;;
13238;SDS011;6686;51.292;4.166;2022-07-22T08:50:14;4.90;;;2.30;;
13238;SDS011;6686;51.292;4.166;2022-07-22T08:52:59;10.13;;;2.90;;
13238;SDS011;6686;51.292;4.166;2022-07-22T08:55:45;6.67;;;2.60;;
13238;SDS011;6686;51.292;4.166;2022-07-22T08:58:31;5.97;;;2.60;;
13238;SDS011;6686;51.292;4.166;2022-07-22T09:01:17;4.00;;;2.37;;
13238;SDS011;6686;51.292;4.166;2022-07-22T09:04:03;5.70;;;2.70;;
13238;SDS011;6686;51.292;4.166;2022-07-22T09:06:48;5.47;;;2.57;;
13238;SDS011;6686;51.292;4.166;2022-07-22T09:09:34;5.10;;;2.40;;
13238;SDS011;6686;51.292;4.166;2022-07-22T09:12:20;13.60;;;3.60;;
13238;SDS011;6686;51.292;4.166;2022-07-22T09:15:06;6.87;;;2.70;;
13238;SDS011;6686;51.292;4.166;2022-07-22T09:17:52;4.37;;;2.90;;
13238;SDS011;6686;51.292;4.166;2022-07-22T09:20:38;3.80;;;3.03;;
13238;SDS011;6686;51.292;4.166;2022-07-22T09:23:24;33.83;;;5.57;;
13238;SDS011;6686;51.292;4.166;2022-07-22T09:26:28;28.20;;;4.70;;
13238;SDS011;6686;51.292;4.166;2022-07-22T09:28:55;6.80;;;2.40;;
13238;SDS011;6686;51.292;4.166;2022-07-22T09:31:40;23.83;;;4.73;;
13238;SDS011;6686;51.292;4.166;2022-07-22T09:34:38;7.93;;;2.47;;
13238;SDS011;6686;51.292;4.166;2022-07-22T09:37:24;4.05;;;2.55;;
13238;SDS011;6686;51.292;4.166;2022-07-22T09:40:17;5.23;;;2.67;;
13238;SDS011;6686;51.292;4.166;2022-07-22T09:43:07;5.70;;;2.50;;
13238;SDS011;6686;51.292;4.166;2022-07-22T09:45:49;6.20;;;2.73;;
13238;SDS011;6686;51.292;4.166;2022-07-22T09:48:37;4.60;;;2.80;;
13238;SDS011;6686;51.292;4.166;2022-07-22T09:51:23;3.53;;;2.70;;
13238;SDS011;6686;51.292;4.166;2022-07-22T09:54:09;6.07;;;2.40;;
13238;SDS011;6686;51.292;4.166;2022-07-22T09:56:55;5.83;;;2.40;;
13238;SDS011;6686;51.292;4.166;2022-07-22T09:59:41;6.10;;;2.60;;
13238;SDS011;6686;51.292;4.166;2022-07-22T10:02:27;4.78;;;2.97;;
13238;SDS011;6686;51.292;4.166;2022-07-22T10:05:13;5.82;;;3.20;;
13238;SDS011;6686;51.292;4.166;2022-07-22T10:08:04;7.68;;;2.80;;
13238;SDS011;6686;51.292;4.166;2022-07-22T10:10:45;3.85;;;3.28;;
13238;SDS011;6686;51.292;4.166;2022-07-22T10:13:31;4.77;;;3.00;;
13238;SDS011;6686;51.292;4.166;2022-07-22T10:16:17;4.93;;;3.20;;
13238;SDS011;6686;51.292;4.166;2022-07-22T10:19:03;6.57;;;3.73;;
13238;SDS011;6686;51.292;4.166;2022-07-22T10:21:49;6.33;;;3.90;;
13238;SDS011;6686;51.292;4.166;2022-07-22T10:24:34;6.50;;;4.43;;
13238;SDS011;6686;51.292;4.166;2022-07-22T10:27:42;5.77;;;4.00;;
13238;SDS011;6686;51.292;4.166;2022-07-22T10:30:06;6.23;;;4.33;;
13238;SDS011;6686;51.292;4.166;2022-07-22T10:33:13;6.00;;;4.30;;
13238;SDS011;6686;51.292;4.166;2022-07-22T10:35:55;6.87;;;4.30;;
13238;SDS011;6686;51.292;4.166;2022-07-22T10:41:47;6.43;;;4.70;;
13238;SDS011;6686;51.292;4.166;2022-07-22T10:44:48;6.60;;;4.83;;
13238;SDS011;6686;51.292;4.166;2022-07-22T10:50:42;5.97;;;4.17;;
13238;SDS011;6686;51.292;4.166;2022-07-22T10:53:41;5.23;;;4.50;;
13238;SDS011;6686;51.292;4.166;2022-07-22T10:56:29;8.77;;;5.33;;
13238;SDS011;6686;51.292;4.166;2022-07-22T10:59:15;8.27;;;4.70;;
13238;SDS011;6686;51.292;4.166;2022-07-22T11:02:00;5.32;;;4.75;;
13238;SDS011;6686;51.292;4.166;2022-07-22T11:04:46;6.87;;;4.47;;
13238;SDS011;6686;51.292;4.166;2022-07-22T11:07:33;7.90;;;4.33;;
13238;SDS011;6686;51.292;4.166;2022-07-22T11:10:19;5.87;;;4.78;;
13238;SDS011;6686;51.292;4.166;2022-07-22T11:13:04;6.67;;;3.93;;
13238;SDS011;6686;51.292;4.166;2022-07-22T11:15:50;5.10;;;4.20;;
13238;SDS011;6686;51.292;4.166;2022-07-22T11:21:48;5.70;;;4.47;;
13238;SDS011;6686;51.292;4.166;2022-07-22T11:24:29;8.00;;;4.73;;
13238;SDS011;6686;51.292;4.166;2022-07-22T11:27:15;5.00;;;4.20;;
13238;SDS011;6686;51.292;4.166;2022-07-22T11:30:00;11.17;;;4.90;;
13238;SDS011;6686;51.292;4.166;2022-07-22T11:32:46;8.18;;;5.15;;
13238;SDS011;6686;51.292;4.166;2022-07-22T11:35:32;6.60;;;5.77;;
13238;SDS011;6686;51.292;4.166;2022-07-22T11:38:18;6.73;;;5.97;;
13238;SDS011;6686;51.292;4.166;2022-07-22T11:41:04;8.50;;;4.93;;
13238;SDS011;6686;51.292;4.166;2022-07-22T11:43:50;5.10;;;4.50;;
13238;SDS011;6686;51.292;4.166;2022-07-22T11:46:37;6.40;;;4.50;;
13238;SDS011;6686;51.292;4.166;2022-07-22T11:49:22;6.10;;;5.43;;
13238;SDS011;6686;51.292;4.166;2022-07-22T11:52:09;8.50;;;5.93;;
13238;SDS011;6686;51.292;4.166;2022-07-22T11:54:54;7.00;;;5.50;;
13238;SDS011;6686;51.292;4.166;2022-07-22T11:57:47;8.03;;;6.20;;
13238;SDS011;6686;51.292;4.166;2022-07-22T12:00:33;7.33;;;5.40;;
13238;SDS011;6686;51.292;4.166;2022-07-22T12:03:18;7.57;;;5.63;;
13238;SDS011;6686;51.292;4.166;2022-07-22T12:06:05;7.07;;;5.20;;
13238;SDS011;6686;51.292;4.166;2022-07-22T12:08:51;6.73;;;5.27;;
13238;SDS011;6686;51.292;4.166;2022-07-22T12:11:37;5.73;;;5.00;;
13238;SDS011;6686;51.292;4.166;2022-07-22T12:14:23;6.87;;;5.10;;
13238;SDS011;6686;51.292;4.166;2022-07-22T12:17:09;6.23;;;5.07;;
13238;SDS011;6686;51.292;4.166;2022-07-22T12:20:05;5.63;;;5.07;;
13238;SDS011;6686;51.292;4.166;2022-07-22T12:22:46;6.80;;;4.90;;
13238;SDS011;6686;51.292;4.166;2022-07-22T12:25:31;5.40;;;4.90;;
13238;SDS011;6686;51.292;4.166;2022-07-22T12:28:17;6.00;;;5.13;;
13238;SDS011;6686;51.292;4.166;2022-07-22T12:31:04;12.20;;;7.93;;
13238;SDS011;6686;51.292;4.166;2022-07-22T12:33:49;11.40;;;6.20;;
13238;SDS011;6686;51.292;4.166;2022-07-22T12:36:35;9.27;;;6.70;;
13238;SDS011;6686;51.292;4.166;2022-07-22T12:39:21;6.43;;;5.83;;
13238;SDS011;6686;51.292;4.166;2022-07-22T12:42:15;5.67;;;5.17;;
13238;SDS011;6686;51.292;4.166;2022-07-22T12:44:54;7.20;;;5.80;;
13238;SDS011;6686;51.292;4.166;2022-07-22T12:48:00;7.35;;;5.72;;
13238;SDS011;6686;51.292;4.166;2022-07-22T12:50:55;8.13;;;5.95;;
13238;SDS011;6686;51.292;4.166;2022-07-22T12:53:43;6.60;;;5.72;;
13238;SDS011;6686;51.292;4.166;2022-07-22T12:56:32;8.43;;;5.73;;
13238;SDS011;6686;51.292;4.166;2022-07-22T12:59:15;6.73;;;5.63;;
13238;SDS011;6686;51.292;4.166;2022-07-22T13:02:01;8.67;;;5.70;;
13238;SDS011;6686;51.292;4.166;2022-07-22T13:04:47;7.77;;;5.23;;
13238;SDS011;6686;51.292;4.166;2022-07-22T13:07:33;8.27;;;6.27;;
13238;SDS011;6686;51.292;4.166;2022-07-22T13:10:19;5.77;;;5.27;;
13238;SDS011;6686;51.292;4.166;2022-07-22T13:13:05;10.40;;;5.50;;
13238;SDS011;6686;51.292;4.166;2022-07-22T13:15:51;7.70;;;7.00;;
13238;SDS011;6686;51.292;4.166;2022-07-22T13:18:36;6.33;;;5.33;;
13238;SDS011;6686;51.292;4.166;2022-07-22T13:21:22;6.50;;;5.30;;
13238;SDS011;6686;51.292;4.166;2022-07-22T13:24:08;7.50;;;6.07;;
13238;SDS011;6686;51.292;4.166;2022-07-22T13:26:56;9.17;;;6.00;;
13238;SDS011;6686;51.292;4.166;2022-07-22T13:29:53;6.67;;;5.80;;
13238;SDS011;6686;51.292;4.166;2022-07-22T13:32:44;7.37;;;6.43;;
13238;SDS011;6686;51.292;4.166;2022-07-22T13:35:30;8.13;;;7.17;;
13238;SDS011;6686;51.292;4.166;2022-07-22T13:38:16;8.63;;;7.33;;
13238;SDS011;6686;51.292;4.166;2022-07-22T13:41:02;8.47;;;7.17;;
13238;SDS011;6686;51.292;4.166;2022-07-22T13:43:51;7.27;;;6.43;;
13238;SDS011;6686;51.292;4.166;2022-07-22T13:46:37;8.27;;;7.03;;
13238;SDS011;6686;51.292;4.166;2022-07-22T13:49:23;8.05;;;6.57;;
13238;SDS011;6686;51.292;4.166;2022-07-22T13:52:09;8.27;;;6.43;;
13238;SDS011;6686;51.292;4.166;2022-07-22T13:54:55;7.40;;;6.68;;
13238;SDS011;6686;51.292;4.166;2022-07-22T13:57:41;7.17;;;6.47;;
13238;SDS011;6686;51.292;4.166;2022-07-22T14:00:27;6.83;;;6.00;;
13238;SDS011;6686;51.292;4.166;2022-07-22T14:03:13;6.17;;;5.57;;
13238;SDS011;6686;51.292;4.166;2022-07-22T14:05:59;7.27;;;6.30;;
13238;SDS011;6686;51.292;4.166;2022-07-22T14:08:45;8.77;;;6.40;;
13238;SDS011;6686;51.292;4.166;2022-07-22T14:11:31;6.77;;;6.10;;
13238;SDS011;6686;51.292;4.166;2022-07-22T14:14:17;7.10;;;6.43;;
13238;SDS011;6686;51.292;4.166;2022-07-22T14:17:03;8.07;;;6.47;;
13238;SDS011;6686;51.292;4.166;2022-07-22T14:19:49;7.10;;;6.40;;
13238;SDS011;6686;51.292;4.166;2022-07-22T14:22:37;6.97;;;6.27;;
13238;SDS011;6686;51.292;4.166;2022-07-22T14:25:23;7.13;;;6.43;;
13238;SDS011;6686;51.292;4.166;2022-07-22T14:28:09;8.63;;;6.47;;
13238;SDS011;6686;51.292;4.166;2022-07-22T14:31:02;6.82;;;6.12;;
13238;SDS011;6686;51.292;4.166;2022-07-22T14:33:51;7.57;;;5.93;;
13238;SDS011;6686;51.292;4.166;2022-07-22T14:36:34;7.50;;;6.55;;
13238;SDS011;6686;51.292;4.166;2022-07-22T14:42:24;8.43;;;7.25;;
13238;SDS011;6686;51.292;4.166;2022-07-22T14:45:14;9.57;;;6.33;;
13238;SDS011;6686;51.292;4.166;2022-07-22T14:48:03;10.70;;;6.27;;
13238;SDS011;6686;51.292;4.166;2022-07-22T14:50:50;6.13;;;5.63;;
13238;SDS011;6686;51.292;4.166;2022-07-22T14:53:43;6.50;;;5.47;;
13238;SDS011;6686;51.292;4.166;2022-07-22T14:56:41;8.27;;;5.70;;
13238;SDS011;6686;51.292;4.166;2022-07-22T14:59:30;7.17;;;4.80;;
13238;SDS011;6686;51.292;4.166;2022-07-22T15:02:22;6.90;;;5.07;;
13238;SDS011;6686;51.292;4.166;2022-07-22T15:05:05;5.83;;;5.30;;
13238;SDS011;6686;51.292;4.166;2022-07-22T15:07:59;6.50;;;4.90;;
13238;SDS011;6686;51.292;4.166;2022-07-22T15:10:58;6.13;;;4.70;;
13238;SDS011;6686;51.292;4.166;2022-07-22T15:13:57;6.13;;;4.97;;
13238;SDS011;6686;51.292;4.166;2022-07-22T15:16:41;5.30;;;4.77;;
13238;SDS011;6686;51.292;4.166;2022-07-22T15:19:32;6.43;;;4.57;;
13238;SDS011;6686;51.292;4.166;2022-07-22T15:22:27;5.68;;;4.85;;
13238;SDS011;6686;51.292;4.166;2022-07-22T15:25:29;6.57;;;4.83;;
13238;SDS011;6686;51.292;4.166;2022-07-22T15:28:14;5.67;;;4.67;;
13238;SDS011;6686;51.292;4.166;2022-07-22T15:31:07;8.23;;;4.43;;
13238;SDS011;6686;51.292;4.166;2022-07-22T15:34:16;6.50;;;4.63;;
13238;SDS011;6686;51.292;4.166;2022-07-22T15:36:56;5.93;;;4.30;;
13238;SDS011;6686;51.292;4.166;2022-07-22T15:40:11;3.87;;;3.47;;
13238;SDS011;6686;51.292;4.166;2022-07-22T15:43:00;5.43;;;3.97;;
13238;SDS011;6686;51.292;4.166;2022-07-22T15:45:56;5.47;;;3.93;;
13238;SDS011;6686;51.292;4.166;2022-07-22T15:48:42;4.10;;;3.70;;
13238;SDS011;6686;51.292;4.166;2022-07-22T15:51:36;7.53;;;4.10;;
13238;SDS011;6686;51.292;4.166;2022-07-22T15:54:25;6.68;;;4.37;;
13238;SDS011;6686;51.292;4.166;2022-07-22T15:57:10;6.00;;;4.07;;
13238;SDS011;6686;51.292;4.166;2022-07-22T15:59:59;6.43;;;4.00;;
13238;SDS011;6686;51.292;4.166;2022-07-22T16:02:45;6.37;;;3.67;;
13238;SDS011;6686;51.292;4.166;2022-07-22T16:05:30;6.83;;;4.20;;
13238;SDS011;6686;51.292;4.166;2022-07-22T16:08:17;5.00;;;4.10;;
13238;SDS011;6686;51.292;4.166;2022-07-22T16:11:03;6.13;;;3.93;;
13238;SDS011;6686;51.292;4.166;2022-07-22T16:13:49;6.50;;;4.53;;
13238;SDS011;6686;51.292;4.166;2022-07-22T16:16:34;8.00;;;4.40;;
13238;SDS011;6686;51.292;4.166;2022-07-22T16:19:20;6.03;;;4.50;;
13238;SDS011;6686;51.292;4.166;2022-07-22T16:22:06;6.27;;;4.43;;
13238;SDS011;6686;51.292;4.166;2022-07-22T16:24:52;5.83;;;4.10;;
13238;SDS011;6686;51.292;4.166;2022-07-22T16:27:38;4.70;;;4.17;;
13238;SDS011;6686;51.292;4.166;2022-07-22T16:30:24;4.93;;;4.53;;
13238;SDS011;6686;51.292;4.166;2022-07-22T16:33:10;5.40;;;4.90;;
13238;SDS011;6686;51.292;4.166;2022-07-22T16:35:56;11.17;;;5.53;;
13238;SDS011;6686;51.292;4.166;2022-07-22T16:38:42;6.93;;;4.80;;
13238;SDS011;6686;51.292;4.166;2022-07-22T16:41:28;6.27;;;4.70;;
13238;SDS011;6686;51.292;4.166;2022-07-22T16:44:14;6.43;;;4.23;;
13238;SDS011;6686;51.292;4.166;2022-07-22T16:47:00;6.37;;;4.40;;
13238;SDS011;6686;51.292;4.166;2022-07-22T16:49:46;4.63;;;4.00;;
13238;SDS011;6686;51.292;4.166;2022-07-22T16:52:31;6.70;;;4.70;;
13238;SDS011;6686;51.292;4.166;2022-07-22T16:55:17;5.10;;;4.50;;
13238;SDS011;6686;51.292;4.166;2022-07-22T16:58:03;5.77;;;4.70;;
13238;SDS011;6686;51.292;4.166;2022-07-22T17:00:50;5.33;;;4.13;;
13238;SDS011;6686;51.292;4.166;2022-07-22T17:03:36;4.23;;;3.83;;
13238;SDS011;6686;51.292;4.166;2022-07-22T17:06:24;6.25;;;4.10;;
13238;SDS011;6686;51.292;4.166;2022-07-22T17:09:10;7.67;;;4.03;;
13238;SDS011;6686;51.292;4.166;2022-07-22T17:11:57;5.70;;;4.43;;